createdAt,value
2024-05-09T00:00:35.302Z,97924.72
2024-05-09T00:03:06.012Z,97919.19
2024-05-09T00:05:33.525Z,97921.66
2024-05-09T00:08:01.013Z,97923.34
2024-05-09T00:10:35.443Z,97926.84
2024-05-09T00:13:05.363Z,97919.56
2024-05-09T00:15:32.822Z,97919.94
2024-05-09T00:18:00.299Z,97914.28
2024-05-09T00:20:36.037Z,97915.59
2024-05-09T00:23:07.288Z,97906.69
2024-05-09T00:25:35.409Z,97906.97
2024-05-09T00:28:02.980Z,97910.53
2024-05-09T00:30:35.045Z,97902.75
2024-05-09T00:33:05.175Z,97897.72
2024-05-09T00:35:33.690Z,97899.13
2024-05-09T00:38:01.302Z,97900.41
2024-05-09T00:40:37.258Z,97904.31
2024-05-09T00:43:07.066Z,97894.25
2024-05-09T00:45:35.486Z,97898.41
2024-05-09T00:48:03.194Z,97893.28
2024-05-09T00:50:36.273Z,97893.44
2024-05-09T00:53:05.165Z,97889.47
2024-05-09T00:55:32.537Z,97889.84
2024-05-09T00:57:59.852Z,97890.63
2024-05-09T01:00:35.502Z,97887.31
2024-05-09T01:03:11.989Z,97895.94
2024-05-09T01:05:41.247Z,97884.50
2024-05-09T01:08:09.339Z,97886.59
2024-05-09T01:10:37.001Z,97888.06
2024-05-09T01:13:04.654Z,97886.41
2024-05-09T01:15:32.215Z,97886.84
2024-05-09T01:17:59.709Z,97886.41
2024-05-09T01:20:37.228Z,97887.88
2024-05-09T01:23:09.771Z,97889.72
2024-05-09T01:25:37.472Z,97883.03
2024-05-09T01:28:04.796Z,97892.22
2024-05-09T01:30:35.457Z,97886.94
2024-05-09T01:33:05.401Z,97893.59
2024-05-09T01:35:34.135Z,97893.63
2024-05-09T01:38:01.565Z,97894.41
2024-05-09T01:40:36.655Z,97900.75
2024-05-09T01:43:06.841Z,97895.28
2024-05-09T01:45:34.442Z,97888.97
2024-05-09T01:48:02.698Z,97903.47
2024-05-09T01:50:38.137Z,97904.59
2024-05-09T01:53:08.799Z,97899.00
2024-05-09T01:55:36.299Z,97903.19
2024-05-09T01:58:03.631Z,97905.13
2024-05-09T02:00:38.339Z,97910.56
2024-05-09T02:03:08.986Z,97907.97
2024-05-09T02:05:36.848Z,97912.91
2024-05-09T02:08:04.362Z,97917.50
2024-05-09T02:10:33.002Z,97919.97
2024-05-09T02:13:01.010Z,97919.63
2024-05-09T02:15:28.455Z,97916.19
2024-05-09T02:17:55.915Z,97919.59
2024-05-09T02:20:30.642Z,97918.78
2024-05-09T02:23:03.349Z,97920.28
2024-05-09T02:25:30.707Z,97912.38
2024-05-09T02:27:58.047Z,97924.03
2024-05-09T02:30:35.153Z,97927.53
2024-05-09T02:33:07.529Z,97937.59
2024-05-09T02:35:35.323Z,97931.97
2024-05-09T02:38:02.786Z,97933.84
2024-05-09T02:40:36.671Z,97924.53
2024-05-09T02:43:06.344Z,97923.91
2024-05-09T02:45:33.893Z,97932.94
2024-05-09T02:48:01.944Z,97912.81
2024-05-09T02:50:36.890Z,97927.06
2024-05-09T02:53:06.788Z,97933.84
2024-05-09T02:55:34.117Z,97931.97
2024-05-09T02:58:01.436Z,97927.84
2024-05-09T03:00:36.942Z,97928.03
2024-05-09T03:03:08.779Z,97926.59
2024-05-09T03:05:37.472Z,97929.91
2024-05-09T03:08:05.036Z,97921.97
2024-05-09T03:10:36.287Z,97905.63
2024-05-09T03:13:05.710Z,97919.78
2024-05-09T03:15:33.297Z,97908.88
2024-05-09T03:18:01.034Z,97915.91
2024-05-09T03:20:34.006Z,97916.00
2024-05-09T03:23:03.362Z,97910.53
2024-05-09T03:25:30.950Z,97923.13
2024-05-09T03:27:58.299Z,97923.88
2024-05-09T03:30:34.625Z,97922.09
2024-05-09T03:33:07.271Z,97919.16
2024-05-09T03:35:34.856Z,97925.13
2024-05-09T03:38:02.210Z,97924.69
2024-05-09T03:40:31.080Z,97919.22
2024-05-09T03:42:58.685Z,97919.97
2024-05-09T03:45:26.030Z,97928.94
2024-05-09T03:47:53.639Z,97915.94
2024-05-09T03:50:26.436Z,97921.75
2024-05-09T03:53:01.214Z,97917.16
2024-05-09T03:55:28.613Z,97922.50
2024-05-09T03:57:55.917Z,97916.34
2024-05-09T04:00:31.255Z,97928.34
2024-05-09T04:03:05.911Z,97925.25
2024-05-09T04:05:35.093Z,97918.78
2024-05-09T04:08:02.601Z,97910.94
2024-05-09T04:10:34.191Z,97918.97
2024-05-09T04:13:03.029Z,97924.75
2024-05-09T04:15:30.720Z,97927.63
2024-05-09T04:17:58.333Z,97929.91
2024-05-09T04:20:36.015Z,97928.75
2024-05-09T04:23:07.193Z,97922.63
2024-05-09T04:25:35.352Z,97927.94
2024-05-09T04:28:02.661Z,97926.78
2024-05-09T04:30:36.663Z,97938.09
2024-05-09T04:33:08.866Z,97927.88
2024-05-09T04:35:38.400Z,97935.09
2024-05-09T04:38:06.558Z,97935.94
2024-05-09T04:40:36.431Z,97926.16
2024-05-09T04:43:04.826Z,97943.16
2024-05-09T04:45:32.154Z,97938.59
2024-05-09T04:47:59.898Z,97937.88
2024-05-09T04:50:36.034Z,97931.53
2024-05-09T04:53:06.478Z,97929.06
2024-05-09T04:55:34.372Z,97937.56
2024-05-09T04:58:01.912Z,97939.66
2024-05-09T05:00:35.853Z,97931.03
2024-05-09T05:03:05.351Z,97940.88
2024-05-09T05:05:33.064Z,97939.88
2024-05-09T05:08:00.462Z,97942.66
2024-05-09T05:10:33.866Z,97942.31
2024-05-09T05:13:03.767Z,97945.06
2024-05-09T05:15:31.094Z,97948.50
2024-05-09T05:17:58.575Z,97946.09
2024-05-09T05:20:32.731Z,97940.88
2024-05-09T05:23:01.254Z,97949.72
2024-05-09T05:25:28.679Z,97948.50
2024-05-09T05:27:55.968Z,97943.22
2024-05-09T05:30:28.989Z,97945.31
2024-05-09T05:33:00.644Z,97941.25
2024-05-09T05:35:28.428Z,97936.84
2024-05-09T05:37:55.976Z,97939.69
2024-05-09T05:40:32.207Z,97940.41
2024-05-09T05:43:03.256Z,97941.28
2024-05-09T05:45:30.598Z,97949.69
2024-05-09T05:47:58.047Z,97939.88
2024-05-09T05:50:32.471Z,97945.19
2024-05-09T05:53:03.626Z,97947.53
2024-05-09T05:55:31.015Z,97953.78
2024-05-09T05:57:58.301Z,97956.06
2024-05-09T06:00:30.119Z,97952.97
2024-05-09T06:03:05.184Z,97950.16
2024-05-09T06:05:32.937Z,97952.97
2024-05-09T06:08:00.670Z,97950.56
2024-05-09T06:10:37.323Z,97960.41
2024-05-09T06:13:07.158Z,97964.59
2024-05-09T06:15:34.525Z,97967.72
2024-05-09T06:18:02.152Z,97962.22
2024-05-09T06:20:36.177Z,97957.94
2024-05-09T06:23:05.508Z,97955.91
2024-05-09T06:25:33.081Z,97959.56
2024-05-09T06:28:00.514Z,97965.63
2024-05-09T06:30:36.775Z,97961.50
2024-05-09T06:33:07.700Z,97971.88
2024-05-09T06:35:36.022Z,97969.97
2024-05-09T06:38:03.561Z,97966.91
2024-05-09T06:40:37.282Z,97970.38
2024-05-09T06:43:06.752Z,97975.19
2024-05-09T06:45:34.092Z,97980.47
2024-05-09T06:48:01.520Z,97973.31
2024-05-09T06:50:35.729Z,97978.78
2024-05-09T06:53:05.661Z,97979.63
2024-05-09T06:55:33.055Z,97975.94
2024-05-09T06:58:00.415Z,97968.47
2024-05-09T07:00:35.539Z,97974.06
2024-05-09T07:03:06.903Z,97974.56
2024-05-09T07:05:34.460Z,97982.09
2024-05-09T07:08:01.801Z,97979.81
2024-05-09T07:10:34.459Z,97973.38
2024-05-09T07:13:03.165Z,97981.84
2024-05-09T07:15:30.440Z,97979.56
2024-05-09T07:17:57.925Z,97979.91
2024-05-09T07:20:33.740Z,97974.13
2024-05-09T07:23:02.499Z,97981.69
2024-05-09T07:25:30.286Z,97973.38
2024-05-09T07:27:57.856Z,97970.44
2024-05-09T07:30:32.696Z,97977.81
2024-05-09T07:33:02.544Z,97978.94
2024-05-09T07:35:30.891Z,97969.03
2024-05-09T07:37:58.551Z,97981.19
2024-05-09T07:40:33.154Z,97980.81
2024-05-09T07:43:03.700Z,97984.34
2024-05-09T07:45:47.895Z,97986.22
2024-05-09T07:53:38.242Z,97976.88
2024-05-09T07:56:06.303Z,97975.97
2024-05-09T07:58:33.758Z,97976.88
2024-05-09T08:01:01.244Z,97979.78
2024-05-09T08:03:28.845Z,97981.09
2024-05-09T08:05:56.252Z,97966.72
2024-05-09T08:08:23.582Z,97976.44
2024-05-09T08:10:51.121Z,97965.84
2024-05-09T08:13:18.791Z,97980.44
2024-05-09T08:15:46.280Z,97978.47
2024-05-09T08:18:13.828Z,97980.63
2024-05-09T08:20:41.193Z,97986.09
2024-05-09T08:23:08.498Z,97983.84
2024-05-09T08:25:35.823Z,97982.13
2024-05-09T08:28:03.185Z,97976.06
2024-05-09T08:30:36.474Z,97974.00
2024-05-09T08:33:06.080Z,97976.56
2024-05-09T08:35:34.237Z,97972.53
2024-05-09T08:38:01.878Z,97970.75
2024-05-09T08:40:34.454Z,97976.22
2024-05-09T08:43:04.781Z,97974.97
2024-05-09T08:45:32.226Z,97972.06
2024-05-09T08:47:59.687Z,97979.50
2024-05-09T08:50:35.468Z,97977.28
2024-05-09T08:53:05.921Z,97974.88
2024-05-09T08:55:33.271Z,97978.25
2024-05-09T08:58:00.598Z,97976.00
2024-05-09T09:00:35.778Z,97976.06
2024-05-09T09:03:04.740Z,97968.44
2024-05-09T09:05:32.465Z,97972.22
2024-05-09T09:07:59.842Z,97970.34
2024-05-09T09:10:32.015Z,97959.91
2024-05-09T09:13:00.848Z,97974.19
2024-05-09T09:15:28.340Z,97968.88
2024-05-09T09:17:55.815Z,97979.25
2024-05-09T09:20:29.220Z,97970.09
2024-05-09T09:23:02.859Z,97966.69
2024-05-09T09:25:30.223Z,97959.09
2024-05-09T09:27:58.056Z,97963.00
2024-05-09T09:30:34.768Z,97963.97
2024-05-09T09:33:05.468Z,97955.94
2024-05-09T09:35:33.069Z,97957.41
2024-05-09T09:38:00.358Z,97950.13
2024-05-09T09:40:32.145Z,97949.06
2024-05-09T09:43:01.358Z,97950.78
2024-05-09T09:45:28.773Z,97944.13
2024-05-09T09:47:56.165Z,97948.97
2024-05-09T09:50:31.341Z,97946.50
2024-05-09T09:53:01.621Z,97942.00
2024-05-09T09:55:29.116Z,97946.13
2024-05-09T09:57:56.565Z,97939.25
2024-05-09T10:00:29.997Z,97935.16
2024-05-09T10:03:00.413Z,97927.84
2024-05-09T10:05:28.245Z,97936.88
2024-05-09T10:07:55.755Z,97921.13
2024-05-09T10:10:30.284Z,97930.16
2024-05-09T10:13:00.350Z,97921.91
2024-05-09T10:15:27.982Z,97914.97
2024-05-09T10:17:55.455Z,97918.84
2024-05-09T10:20:27.948Z,97919.63
2024-05-09T10:22:58.244Z,97922.53
2024-05-09T10:25:25.681Z,97918.41
2024-05-09T10:27:53.019Z,97920.81
2024-05-09T10:30:25.989Z,97915.50
2024-05-09T10:32:57.396Z,97905.34
2024-05-09T10:35:24.722Z,97906.03
2024-05-09T10:37:52.029Z,97904.50
2024-05-09T10:40:25.883Z,97906.25
2024-05-09T10:42:56.778Z,97906.06
2024-05-09T10:45:24.199Z,97897.31
2024-05-09T10:47:51.775Z,97903.44
2024-05-09T10:50:25.704Z,97893.44
2024-05-09T10:52:56.357Z,97897.31
2024-05-09T10:55:23.790Z,97888.00
2024-05-09T10:57:51.262Z,97896.16
2024-05-09T11:00:27.391Z,97889.19
2024-05-09T11:03:00.535Z,97884.44
2024-05-09T11:05:28.220Z,97887.16
2024-05-09T11:07:55.665Z,97890.03
2024-05-09T11:10:27.834Z,97875.53
2024-05-09T11:13:00.986Z,97872.25
2024-05-09T11:15:28.304Z,97879.22
2024-05-09T11:17:55.676Z,97869.06
2024-05-09T11:20:29.330Z,97874.13
2024-05-09T11:22:57.433Z,97869.25
2024-05-09T11:25:25.842Z,97875.09
2024-05-09T11:27:53.264Z,97869.78
2024-05-09T11:30:27.046Z,97863.28
2024-05-09T11:32:59.265Z,97870.47
2024-05-09T11:35:26.685Z,97865.56
2024-05-09T11:37:53.956Z,97862.38
2024-05-09T11:40:25.657Z,97861.06
2024-05-09T11:42:59.369Z,97845.00
2024-05-09T11:45:26.747Z,97845.00
2024-05-09T11:47:54.218Z,97840.16
2024-05-09T11:50:27.298Z,97836.53
2024-05-09T11:52:59.825Z,97833.72
2024-05-09T11:55:28.405Z,97834.59
2024-05-09T11:57:56.058Z,97827.75
2024-05-09T12:00:29.787Z,97832.28
2024-05-09T12:03:03.936Z,97830.94
2024-05-09T12:05:31.529Z,97826.94
2024-05-09T12:07:58.912Z,97831.72
2024-05-09T12:10:32.443Z,97824.50
2024-05-09T12:13:03.134Z,97827.72
2024-05-09T12:15:31.706Z,97817.16
2024-05-09T12:18:01.651Z,97813.13
2024-05-09T12:20:36.747Z,97827.75
2024-05-09T12:23:06.778Z,97807.78
2024-05-09T12:25:34.182Z,97822.66
2024-05-09T12:28:01.573Z,97819.13
2024-05-09T12:30:36.248Z,97819.41
2024-05-09T12:33:06.773Z,97815.38
2024-05-09T12:35:34.206Z,97819.94
2024-05-09T12:38:01.511Z,97818.56
2024-05-09T12:40:35.703Z,97807.56
2024-05-09T12:43:05.505Z,97811.06
2024-05-09T12:45:33.064Z,97799.19
2024-05-09T12:48:00.716Z,97814.03
2024-05-09T12:50:32.677Z,97803.25
2024-05-09T12:53:02.597Z,97806.88
2024-05-09T12:55:37.184Z,97810.78
2024-05-09T12:58:12.075Z,97799.22
2024-05-09T13:00:39.764Z,97802.41
2024-05-09T13:03:07.273Z,97789.06
2024-05-09T13:05:34.889Z,97795.72
2024-05-09T13:08:02.307Z,97793.50
2024-05-09T13:10:32.721Z,97796.50
2024-05-09T13:13:01.791Z,97808.75
2024-05-09T13:15:29.504Z,97799.41
2024-05-09T13:17:59.451Z,97804.16
2024-05-09T13:20:33.252Z,97792.59
2024-05-09T13:23:02.714Z,97792.69
2024-05-09T13:25:30.070Z,97793.13
2024-05-09T13:27:57.522Z,97787.78
2024-05-09T13:30:33.770Z,97784.50
2024-05-09T13:33:06.948Z,97781.53
2024-05-09T13:35:35.311Z,97779.28
2024-05-09T13:38:03.721Z,97777.44
2024-05-09T13:40:34.695Z,97765.03
2024-05-09T13:43:03.788Z,97769.50
2024-05-09T13:45:31.501Z,97774.00
2024-05-09T13:47:59.245Z,97777.44
2024-05-09T13:50:33.677Z,97768.66
2024-05-09T13:53:03.558Z,97769.19
2024-05-09T13:55:30.878Z,97774.28
2024-05-09T13:57:58.320Z,97769.44
2024-05-09T14:00:38.002Z,97766.34
2024-05-09T14:03:12.241Z,97761.72
2024-05-09T14:05:39.902Z,97767.22
2024-05-09T14:08:07.284Z,97773.25
2024-05-09T14:10:34.753Z,97771.22
2024-05-09T14:13:02.235Z,97762.03
2024-05-09T14:15:29.671Z,97764.88
2024-05-09T14:17:57.062Z,97758.06
2024-05-09T14:20:30.906Z,97748.09
2024-05-09T14:22:59.983Z,97752.84
2024-05-09T14:25:27.647Z,97754.72
2024-05-09T14:27:55.048Z,97754.66
2024-05-09T14:30:30.404Z,97756.91
2024-05-09T14:33:04.003Z,97758.06
2024-05-09T14:35:31.744Z,97765.25
2024-05-09T14:37:59.231Z,97761.25
2024-05-09T14:40:36.948Z,97761.25
2024-05-09T14:43:11.828Z,97761.19
2024-05-09T14:45:39.660Z,97750.94
2024-05-09T14:48:07.292Z,97749.91
2024-05-09T14:50:38.173Z,97757.00
2024-05-09T14:53:07.772Z,97746.78
2024-05-09T14:55:36.580Z,97752.53
2024-05-09T14:58:05.026Z,97750.09
2024-05-09T15:00:35.942Z,97752.25
2024-05-09T15:03:04.758Z,97745.78
2024-05-09T15:05:32.380Z,97748.28
2024-05-09T15:07:59.815Z,97746.84
2024-05-09T15:10:34.169Z,97749.38
2024-05-09T15:13:03.851Z,97753.94
2024-05-09T15:15:31.507Z,97749.81
2024-05-09T15:17:59.070Z,97755.84
2024-05-09T15:20:34.324Z,97753.81
2024-05-09T15:23:04.017Z,97750.53
2024-05-09T15:25:31.553Z,97745.53
2024-05-09T15:27:58.987Z,97748.56
2024-05-09T15:32:56.712Z,97744.78
2024-05-09T15:35:24.061Z,97743.56
2024-05-09T15:37:51.351Z,97747.19
2024-05-09T15:40:26.578Z,97735.94
2024-05-09T15:43:02.897Z,97738.50
2024-05-09T15:45:30.345Z,97743.97
2024-05-09T15:47:58.064Z,97749.16
2024-05-09T15:50:35.250Z,97743.00
2024-05-09T15:53:06.989Z,97743.28
2024-05-09T15:55:35.085Z,97735.69
2024-05-09T15:58:02.779Z,97740.66
2024-05-09T16:00:37.452Z,97746.53
2024-05-09T16:03:08.490Z,97743.03
2024-05-09T16:05:36.240Z,97737.41
2024-05-09T16:08:03.668Z,97733.72
2024-05-09T16:10:33.228Z,97738.69
2024-05-09T16:13:02.641Z,97735.47
2024-05-09T16:15:30.745Z,97739.84
2024-05-09T16:17:58.244Z,97740.41
2024-05-09T16:20:34.326Z,97733.38
2024-05-09T16:23:06.912Z,97746.13
2024-05-09T16:25:34.281Z,97734.84
2024-05-09T16:28:02.014Z,97734.16
2024-05-09T16:30:34.794Z,97740.41
2024-05-09T16:33:04.070Z,97740.00
2024-05-09T16:35:32.244Z,97740.19
2024-05-09T16:37:59.544Z,97744.97
2024-05-09T16:40:36.083Z,97736.34
2024-05-09T16:43:07.545Z,97748.41
2024-05-09T16:45:35.456Z,97747.84
2024-05-09T16:48:02.931Z,97742.06
2024-05-09T16:50:33.367Z,97746.63
2024-05-09T16:53:02.587Z,97746.91
2024-05-09T16:55:30.018Z,97750.47
2024-05-09T16:57:57.526Z,97755.16
2024-05-09T17:00:35.870Z,97757.53
2024-05-09T17:03:09.913Z,97756.53
2024-05-09T17:05:38.274Z,97758.78
2024-05-09T17:08:05.924Z,97759.09
2024-05-09T17:10:35.050Z,97760.84
2024-05-09T17:13:03.843Z,97759.84
2024-05-09T17:15:32.049Z,97764.41
2024-05-09T17:17:59.500Z,97760.97
2024-05-09T17:20:33.023Z,97766.84
2024-05-09T17:23:03.306Z,97761.38
2024-05-09T17:25:30.680Z,97776.28
2024-05-09T17:27:58.027Z,97765.94
2024-05-09T17:30:32.345Z,97770.19
2024-05-09T17:33:03.647Z,97764.91
2024-05-09T17:35:31.217Z,97774.63
2024-05-09T17:37:58.517Z,97791.81
2024-05-09T17:40:32.507Z,97789.78
2024-05-09T17:43:03.324Z,97792.13
2024-05-09T17:45:31.101Z,97789.56
2024-05-09T17:47:58.805Z,97797.91
2024-05-09T17:50:31.814Z,97796.59
2024-05-09T17:53:03.093Z,97794.16
2024-05-09T17:55:30.538Z,97801.25
2024-05-09T17:57:58.147Z,97803.19
2024-05-09T18:00:36.277Z,97806.66
2024-05-09T18:03:07.445Z,97806.25
2024-05-09T18:05:35.961Z,97807.94
2024-05-09T18:08:04.097Z,97818.09
2024-05-09T18:10:36.691Z,97818.50
2024-05-09T18:13:07.160Z,97825.00
2024-05-09T18:15:35.150Z,97820.19
2024-05-09T18:18:03.276Z,97825.22
2024-05-09T18:20:40.562Z,97825.97
2024-05-09T18:23:11.826Z,97826.34
2024-05-09T18:25:39.287Z,97821.56
2024-05-09T18:28:06.810Z,97828.28
2024-05-09T18:30:36.246Z,97824.50
2024-05-09T18:33:05.912Z,97829.16
2024-05-09T18:35:34.625Z,97829.19
2024-05-09T18:38:02.076Z,97821.91
2024-05-09T18:40:34.412Z,97834.03
2024-05-09T18:43:04.901Z,97834.63
2024-05-09T18:45:33.328Z,97848.28
2024-05-09T18:48:00.904Z,97841.13
2024-05-09T18:50:34.915Z,97846.72
2024-05-09T18:53:05.663Z,97853.03
2024-05-09T18:55:33.141Z,97857.91
2024-05-09T18:58:00.808Z,97865.97
2024-05-09T19:00:34.667Z,97871.28
2024-05-09T19:03:06.345Z,97875.91
2024-05-09T19:05:34.555Z,97876.44
2024-05-09T19:08:02.225Z,97885.44
2024-05-09T19:10:34.234Z,97882.78
2024-05-09T19:13:06.854Z,97887.75
2024-05-09T19:15:38.497Z,97889.53
2024-05-09T19:18:06.538Z,97891.66
2024-05-09T19:20:35.751Z,97893.06
2024-05-09T19:23:04.332Z,97898.28
2024-05-09T19:25:31.847Z,97906.56
2024-05-09T19:27:59.273Z,97906.34
2024-05-09T19:30:36.362Z,97912.72
2024-05-09T19:33:08.045Z,97908.03
2024-05-09T19:35:35.578Z,97914.28
2024-05-09T19:38:02.904Z,97910.50
2024-05-09T19:40:32.544Z,97926.75
2024-05-09T19:43:02.465Z,97923.22
2024-05-09T19:45:30.508Z,97922.28
2024-05-09T19:47:58.091Z,97928.91
2024-05-09T19:50:35.674Z,97931.81
2024-05-09T19:53:08.480Z,97925.94
2024-05-09T19:55:35.853Z,97929.16
2024-05-09T19:58:05.290Z,97932.13
2024-05-09T20:00:36.248Z,97934.84
2024-05-09T20:03:05.677Z,97932.66
2024-05-09T20:05:33.630Z,97935.59
2024-05-09T20:08:01.501Z,97938.31
2024-05-09T20:10:32.689Z,97940.81
2024-05-09T20:13:02.648Z,97941.84
2024-05-09T20:15:30.184Z,97943.41
2024-05-09T20:17:57.727Z,97945.44
2024-05-09T20:20:33.658Z,97945.44
2024-05-09T20:23:05.717Z,97948.31
2024-05-09T20:25:33.196Z,97953.31
2024-05-09T20:28:00.771Z,97950.50
2024-05-09T20:30:32.360Z,97953.94
2024-05-09T20:33:01.764Z,97960.13
2024-05-09T20:35:29.447Z,97951.69
2024-05-09T20:37:56.707Z,97957.63
2024-05-09T20:40:29.245Z,97961.09
2024-05-09T20:43:00.884Z,97958.59
2024-05-09T20:45:28.308Z,97972.38
2024-05-09T20:47:56.035Z,97969.44
2024-05-09T20:50:32.427Z,97966.75
2024-05-09T20:53:05.402Z,97970.22
2024-05-09T20:55:32.704Z,97974.84
2024-05-09T20:58:00.021Z,97978.47
2024-05-09T21:00:35.391Z,97976.22
2024-05-09T21:03:07.762Z,97973.78
2024-05-09T21:05:35.851Z,97979.59
2024-05-09T21:08:03.417Z,97981.06
2024-05-09T21:10:33.301Z,97975.44
2024-05-09T21:13:02.690Z,97982.25
2024-05-09T21:15:30.906Z,97973.56
2024-05-09T21:17:58.746Z,97976.25
2024-05-09T21:20:31.629Z,97977.84
2024-05-09T21:23:00.409Z,97973.09
2024-05-09T21:25:27.934Z,97976.19
2024-05-09T21:27:55.520Z,97977.94
2024-05-09T21:30:32.364Z,97979.91
2024-05-09T21:33:08.468Z,97982.00
2024-05-09T21:35:36.292Z,97985.66
2024-05-09T21:38:03.610Z,97982.69
2024-05-09T21:40:34.612Z,97989.47
2024-05-09T21:43:03.606Z,97989.69
2024-05-09T21:45:31.305Z,97994.22
2024-05-09T21:47:58.965Z,97995.16
2024-05-09T21:50:36.144Z,97986.84
2024-05-09T21:53:07.621Z,97988.41
2024-05-09T21:55:35.046Z,97990.97
2024-05-09T21:58:03.170Z,97984.38
2024-05-09T22:00:36.611Z,97994.56
2024-05-09T22:03:06.047Z,97991.91
2024-05-09T22:05:33.937Z,97995.56
2024-05-09T22:08:01.526Z,97999.22
2024-05-09T22:10:33.866Z,97998.72
2024-05-09T22:13:04.033Z,98000.28
2024-05-09T22:15:31.695Z,98001.59
2024-05-09T22:17:59.119Z,98000.38
2024-05-09T22:20:34.468Z,98003.72
2024-05-09T22:23:05.347Z,98006.81
2024-05-09T22:25:33.240Z,98009.50
2024-05-09T22:28:01.269Z,98013.09
2024-05-09T22:30:35.834Z,98011.19
2024-05-09T22:33:06.695Z,98009.47
2024-05-09T22:35:34.258Z,98012.41
2024-05-09T22:38:01.564Z,98003.91
2024-05-09T22:40:38.547Z,98003.66
2024-05-09T22:43:13.997Z,98009.03
2024-05-09T22:45:41.609Z,98010.63
2024-05-09T22:48:09.394Z,98007.22
2024-05-09T22:50:36.864Z,98008.63
2024-05-09T22:53:04.200Z,98013.59
2024-05-09T22:55:31.493Z,98014.44
2024-05-09T22:57:58.889Z,98004.13
2024-05-09T23:00:31.298Z,98017.00
2024-05-09T23:03:00.343Z,98002.66
2024-05-09T23:05:28.027Z,98008.09
2024-05-09T23:07:55.491Z,98007.38
2024-05-09T23:10:30.905Z,98010.47
2024-05-09T23:13:02.789Z,98012.19
2024-05-09T23:15:30.328Z,98009.56
2024-05-09T23:17:58.228Z,98009.81
2024-05-09T23:20:33.496Z,98010.38
2024-05-09T23:23:05.328Z,98009.81
2024-05-09T23:25:32.733Z,98008.84
2024-05-09T23:28:00.172Z,98002.91
2024-05-09T23:30:36.039Z,98005.81
2024-05-09T23:33:07.013Z,98002.78
2024-05-09T23:35:34.553Z,98002.53
2024-05-09T23:38:01.903Z,98002.19
2024-05-09T23:40:37.853Z,97993.13
2024-05-09T23:43:07.877Z,97993.06
2024-05-09T23:45:35.415Z,97988.00
2024-05-09T23:48:03.321Z,97981.50
2024-05-09T23:50:35.423Z,97988.16
2024-05-09T23:53:05.595Z,97977.41
2024-05-09T23:55:33.274Z,97982.53
2024-05-09T23:58:00.891Z,97979.97
